La Tapa, Argentina
Current Conditions -  °F | °C
As of 7:00 PM on Monday 22 Dec 2014 (Local Time) from SANT Reporting Station
Broken Clouds Broken Clouds  
Wind Chill: 66°   Ceiling: 4000
Heat Index: 66°   Visibility: 6mi
Dew Point: 55°   Wind: 5mph
Humidity: 68%   Direction: 270°W
Pressure: 30.12"   Gusts: NA
Location:  27.53°S, 63.56°W
Report Text: SANT 222200Z 27004KT 9999 BKN040 19/13 Q1020
Loading
Personal Weather Stations






























Interactive Weather Map New forecast layout! Learn more

10-Day Weather Forecast

Advertisements
Track Severe Weather on mobile